Time;durP1;ratioP1;P1;durP2;ratioP2;P2;SDS_P1;SDS_P2;PMS_P1;PMS_P2;Temp;Humidity;BMP_temperature;BMP_pressure;BME280_temperature;BME280_humidity;BME280_pressure;Samples;Min_cycle;Max_cycle;Signal;HPM_P1;HPM_P2
2021/03/28 00:02:08;;;;;;;5.20;3.90;;;;;;;;;;5105942;28;20585;-43
2021/03/28 00:05:02;;;;;;;4.13;3.70;;;;;;;;;;5108222;28;20678;-42
2021/03/28 00:07:39;;;;;;;4.23;3.83;;;;;;;;;;5086556;28;20619;-42
2021/03/28 00:10:07;;;;;;;4.03;3.67;;;;;;;;;;5109560;28;20600;-42
2021/03/28 00:12:36;;;;;;;4.60;3.00;;;;;;;;;;5106398;28;20628;-42
2021/03/28 00:15:11;;;;;;;4.37;3.57;;;;;;;;;;5108966;28;20640;-43
2021/03/28 00:17:36;;;;;;;4.57;3.20;;;;;;;;;;5100778;28;20603;-43
2021/03/28 00:20:11;;;;;;;4.93;4.13;;;;;;;;;;5109385;28;20604;-42
2021/03/28 00:22:38;;;;;;;5.43;3.83;;;;;;;;;;5100631;28;20170;-42
2021/03/28 00:25:04;;;;;;;4.40;4.00;;;;;;;;;;5102452;28;20676;-43
2021/03/28 00:27:37;;;;;;;5.70;3.80;;;;;;;;;;5108601;28;21032;-42
2021/03/28 00:30:06;;;;;;;3.37;3.17;;;;;;;;;;5105832;28;20204;-43
2021/03/28 00:32:49;;;;;;;3.90;3.60;;;;;;;;;;5108000;28;20612;-42
2021/03/28 00:35:16;;;;;;;3.77;3.30;;;;;;;;;;5104019;28;20641;-43
2021/03/28 00:37:43;;;;;;;6.67;4.20;;;;;;;;;;5110096;27;20600;-43
2021/03/28 00:40:08;;;;;;;4.57;3.77;;;;;;;;;;5107241;28;20636;-44
2021/03/28 00:42:41;;;;;;;3.92;3.63;;;;;;;;;;5096378;28;20600;-42
2021/03/28 00:45:25;;;;;;;5.30;3.80;;;;;;;;;;5108992;28;20372;-43
2021/03/28 00:48:09;;;;;;;3.90;3.60;;;;;;;;;;5106791;28;20619;-43
2021/03/28 00:50:34;;;;;;;4.50;4.10;;;;;;;;;;5108372;28;21021;-43
2021/03/28 00:53:01;;;;;;;3.90;3.60;;;;;;;;;;5108855;28;20607;-43
2021/03/28 00:55:29;;;;;;;6.80;3.83;;;;;;;;;;5108315;28;20233;-43
2021/03/28 00:58:06;;;;;;;4.33;3.93;;;;;;;;;;5101157;27;20959;-41
2021/03/28 01:00:37;;;;;;;5.27;4.60;;;;;;;;;;5106539;27;20579;-41
2021/03/28 01:03:04;;;;;;;4.77;4.33;;;;;;;;;;5108595;27;20596;-42
2021/03/28 01:05:51;;;;;;;6.87;3.60;;;;;;;;;;5108287;28;21193;-43
2021/03/28 01:08:21;;;;;;;3.80;3.47;;;;;;;;;;5104988;28;20599;-42
2021/03/28 01:10:50;;;;;;;5.33;4.00;;;;;;;;;;5106134;28;21032;-41
2021/03/28 01:13:39;;;;;;;5.83;4.40;;;;;;;;;;5104744;28;20588;-42
2021/03/28 01:16:22;;;;;;;3.90;3.50;;;;;;;;;;5107681;28;20645;-43
2021/03/28 01:18:57;;;;;;;3.37;3.17;;;;;;;;;;5108005;28;20615;-42
2021/03/28 01:21:37;;;;;;;4.07;3.77;;;;;;;;;;5108221;28;20638;-42
2021/03/28 01:24:14;;;;;;;3.87;3.47;;;;;;;;;;5100721;28;20596;-43
2021/03/28 01:26:49;;;;;;;3.80;3.50;;;;;;;;;;5107335;28;20644;-43
2021/03/28 01:29:28;;;;;;;3.70;3.40;;;;;;;;;;5107804;28;20591;-42
2021/03/28 01:31:55;;;;;;;3.90;3.60;;;;;;;;;;5107732;28;20600;-42
2021/03/28 01:34:31;;;;;;;4.93;4.00;;;;;;;;;;5107470;28;20606;-42
2021/03/28 01:37:02;;;;;;;6.33;3.60;;;;;;;;;;5104766;28;20721;-42
2021/03/28 01:39:36;;;;;;;7.67;3.97;;;;;;;;;;5105648;28;20603;-43
2021/03/28 01:42:04;;;;;;;5.57;3.87;;;;;;;;;;5099570;28;20665;-42
2021/03/28 01:44:29;;;;;;;5.23;3.90;;;;;;;;;;5108135;28;20606;-43
2021/03/28 01:47:08;;;;;;;4.50;3.70;;;;;;;;;;5107187;28;21209;-43
2021/03/28 01:49:50;;;;;;;5.33;4.33;;;;;;;;;;5107790;28;20239;-43
2021/03/28 01:52:35;;;;;;;3.50;3.20;;;;;;;;;;5106522;28;21018;-43
2021/03/28 01:55:14;;;;;;;4.37;3.63;;;;;;;;;;5107003;28;20659;-44
2021/03/28 01:57:52;;;;;;;6.00;3.80;;;;;;;;;;5104156;28;20603;-43
2021/03/28 02:00:36;;;;;;;3.97;3.67;;;;;;;;;;5099711;28;20607;-44
2021/03/28 02:03:20;;;;;;;4.27;3.90;;;;;;;;;;5106959;28;20631;-43
2021/03/28 02:06:03;;;;;;;4.63;4.23;;;;;;;;;;5107671;28;20607;-44
2021/03/28 02:08:45;;;;;;;5.63;4.50;;;;;;;;;;5103944;28;21020;-43
2021/03/28 02:11:13;;;;;;;5.57;4.23;;;;;;;;;;5107740;28;20600;-44
2021/03/28 02:13:52;;;;;;;5.37;4.73;;;;;;;;;;5107966;28;20619;-43
2021/03/28 02:16:19;;;;;;;4.30;3.97;;;;;;;;;;5101735;28;20647;-42
2021/03/28 02:18:49;;;;;;;4.93;4.30;;;;;;;;;;5106531;28;20619;-44
2021/03/28 02:21:17;;;;;;;9.43;5.23;;;;;;;;;;5101146;28;20686;-44
2021/03/28 02:23:42;;;;;;;4.47;4.07;;;;;;;;;;5107661;28;20616;-40
2021/03/28 02:26:18;;;;;;;9.45;4.20;;;;;;;;;;5107748;28;20668;-43
2021/03/28 02:28:54;;;;;;;7.50;4.87;;;;;;;;;;5102766;28;20233;-42
2021/03/28 02:31:28;;;;;;;4.97;4.50;;;;;;;;;;5104897;28;20598;-42
2021/03/28 02:34:12;;;;;;;5.10;4.70;;;;;;;;;;5104821;28;20603;-42
2021/03/28 02:36:39;;;;;;;5.13;4.60;;;;;;;;;;5100298;28;21219;-43
2021/03/28 02:39:11;;;;;;;4.67;4.27;;;;;;;;;;5106889;28;20614;-43
2021/03/28 02:41:54;;;;;;;4.63;4.20;;;;;;;;;;5107575;28;20631;-43
2021/03/28 02:44:31;;;;;;;5.20;4.17;;;;;;;;;;5107274;28;20660;-41
2021/03/28 02:47:02;;;;;;;4.80;4.40;;;;;;;;;;5107685;28;20588;-43
2021/03/28 02:49:30;;;;;;;4.60;4.20;;;;;;;;;;5108037;28;20591;-43
2021/03/28 02:52:19;;;;;;;5.57;5.07;;;;;;;;;;5111208;28;21171;-41
2021/03/28 02:55:22;;;;;;;4.13;3.83;;;;;;;;;;5102089;28;20602;-42
2021/03/28 02:57:59;;;;;;;5.07;4.67;;;;;;;;;;5005646;28;20608;-42
2021/03/28 03:00:30;;;;;;;4.87;4.47;;;;;;;;;;5006428;28;20629;-42
2021/03/28 03:03:03;;;;;;;6.33;5.10;;;;;;;;;;5066420;28;20630;-42
2021/03/28 03:05:33;;;;;;;3.90;3.67;;;;;;;;;;5102401;28;20646;-42
2021/03/28 03:08:10;;;;;;;6.20;4.53;;;;;;;;;;5110421;28;20695;-42
2021/03/28 03:10:46;;;;;;;4.83;4.43;;;;;;;;;;5104357;28;20599;-42
2021/03/28 03:13:21;;;;;;;4.57;4.17;;;;;;;;;;5108549;28;20957;-42
2021/03/28 03:15:46;;;;;;;5.43;4.53;;;;;;;;;;5105316;28;21204;-43
2021/03/28 03:18:38;;;;;;;7.10;4.72;;;;;;;;;;5110116;28;21179;-43
2021/03/28 03:21:28;;;;;;;4.80;4.30;;;;;;;;;;5109631;28;20220;-42
2021/03/28 03:24:08;;;;;;;5.30;4.70;;;;;;;;;;5103667;28;20592;-43
2021/03/28 03:27:04;;;;;;;6.97;4.50;;;;;;;;;;5108061;28;20587;-42
2021/03/28 03:29:42;;;;;;;4.87;4.47;;;;;;;;;;5109380;28;20598;-42
2021/03/28 03:32:39;;;;;;;6.30;4.67;;;;;;;;;;5109834;28;21205;-42
2021/03/28 03:35:13;;;;;;;5.10;4.60;;;;;;;;;;5054168;28;20634;-41
2021/03/28 03:38:01;;;;;;;5.20;4.17;;;;;;;;;;5107715;28;20599;-43
2021/03/28 03:40:26;;;;;;;6.27;4.87;;;;;;;;;;5109413;28;20612;-42
2021/03/28 03:42:57;;;;;;;4.13;3.90;;;;;;;;;;5109997;28;21160;-42
2021/03/28 03:45:37;;;;;;;6.47;4.80;;;;;;;;;;5109455;28;20178;-42
2021/03/28 03:48:08;;;;;;;5.00;4.60;;;;;;;;;;5105489;28;20685;-43
2021/03/28 03:50:43;;;;;;;4.83;4.20;;;;;;;;;;5109254;28;20594;-42
2021/03/28 03:53:26;;;;;;;6.40;5.03;;;;;;;;;;5109643;28;21150;-43
2021/03/28 03:56:10;;;;;;;5.27;4.83;;;;;;;;;;5107681;28;20666;-43
2021/03/28 03:58:43;;;;;;;4.50;4.10;;;;;;;;;;5108402;28;20603;-43
2021/03/28 04:01:21;;;;;;;5.60;5.07;;;;;;;;;;5108242;28;20600;-43
2021/03/28 04:03:57;;;;;;;4.43;4.13;;;;;;;;;;5101335;28;21582;-43
2021/03/28 04:06:25;;;;;;;5.17;4.70;;;;;;;;;;5104065;28;20590;-43
2021/03/28 04:09:10;;;;;;;6.47;4.27;;;;;;;;;;5108281;28;20666;-43
2021/03/28 04:11:42;;;;;;;5.20;4.70;;;;;;;;;;5107388;28;21207;-43
2021/03/28 04:14:25;;;;;;;5.43;5.03;;;;;;;;;;5101192;28;20606;-43
2021/03/28 04:17:11;;;;;;;6.23;4.20;;;;;;;;;;5106769;28;21009;-43
2021/03/28 04:19:54;;;;;;;6.37;5.00;;;;;;;;;;5089088;28;20605;-43
2021/03/28 04:22:19;;;;;;;6.17;4.60;;;;;;;;;;5107270;28;20700;-43
2021/03/28 04:25:02;;;;;;;5.88;5.07;;;;;;;;;;5104929;28;20683;-43
2021/03/28 04:27:45;;;;;;;5.17;4.27;;;;;;;;;;5108592;28;20813;-43
2021/03/28 04:30:31;;;;;;;4.30;4.00;;;;;;;;;;5105144;28;20572;-43
2021/03/28 04:33:08;;;;;;;5.30;4.80;;;;;;;;;;5105694;27;21008;-43
2021/03/28 04:35:54;;;;;;;5.07;4.47;;;;;;;;;;5108977;27;20642;-43
2021/03/28 04:38:38;;;;;;;4.87;4.47;;;;;;;;;;5107696;27;20595;-44
2021/03/28 04:41:03;;;;;;;5.20;4.70;;;;;;;;;;5107618;28;21139;-42
2021/03/28 04:43:47;;;;;;;5.15;4.28;;;;;;;;;;5108595;28;20583;-42
2021/03/28 04:46:31;;;;;;;5.80;5.20;;;;;;;;;;5107745;28;20920;-42
2021/03/28 04:49:14;;;;;;;5.40;5.00;;;;;;;;;;5107397;28;20595;-42
2021/03/28 04:51:41;;;;;;;7.30;4.77;;;;;;;;;;5107096;28;20600;-43
2021/03/28 04:54:25;;;;;;;4.67;4.37;;;;;;;;;;5108622;28;20598;-43
2021/03/28 04:56:59;;;;;;;5.70;5.10;;;;;;;;;;5104301;28;20651;-42
2021/03/28 04:59:42;;;;;;;5.93;4.73;;;;;;;;;;5100754;28;20587;-42
2021/03/28 05:02:07;;;;;;;4.47;4.07;;;;;;;;;;5106338;28;20584;-43
2021/03/28 05:04:43;;;;;;;5.63;5.07;;;;;;;;;;5108026;27;20599;-43
2021/03/28 05:07:26;;;;;;;7.23;5.70;;;;;;;;;;5108006;28;20312;-42
2021/03/28 05:09:51;;;;;;;6.33;5.23;;;;;;;;;;5107390;28;20584;-42
2021/03/28 05:12:36;;;;;;;6.50;4.90;;;;;;;;;;5105165;28;20599;-43
2021/03/28 05:15:16;;;;;;;5.17;4.77;;;;;;;;;;5107090;28;20637;-42
2021/03/28 05:17:53;;;;;;;8.67;5.40;;;;;;;;;;5107312;28;20686;-42
2021/03/28 05:20:37;;;;;;;7.13;5.73;;;;;;;;;;5107622;28;20937;-43
2021/03/28 05:23:14;;;;;;;6.37;4.90;;;;;;;;;;5106479;28;20594;-42
2021/03/28 05:25:39;;;;;;;6.07;4.43;;;;;;;;;;5101057;27;20602;-41
2021/03/28 05:28:13;;;;;;;5.57;5.10;;;;;;;;;;5104367;28;20593;-42
2021/03/28 05:30:41;;;;;;;6.13;5.47;;;;;;;;;;5106662;28;20281;-43
2021/03/28 05:33:15;;;;;;;5.80;5.30;;;;;;;;;;5107266;28;20611;-43
2021/03/28 05:35:59;;;;;;;6.00;5.50;;;;;;;;;;5092895;28;20655;-42
2021/03/28 05:38:43;;;;;;;7.10;5.20;;;;;;;;;;5106673;28;20591;-42
2021/03/28 05:41:18;;;;;;;7.93;5.70;;;;;;;;;;5107527;28;20639;-43
2021/03/28 05:44:00;;;;;;;6.10;5.20;;;;;;;;;;5096972;28;20596;-44
2021/03/28 05:46:35;;;;;;;5.87;5.33;;;;;;;;;;5106811;28;20598;-42
2021/03/28 05:49:07;;;;;;;6.23;5.30;;;;;;;;;;5104794;28;20623;-42
2021/03/28 05:51:38;;;;;;;5.60;5.10;;;;;;;;;;5107400;28;20592;-42
2021/03/28 05:54:18;;;;;;;5.33;4.60;;;;;;;;;;5107144;28;20600;-42
2021/03/28 05:56:46;;;;;;;5.23;4.73;;;;;;;;;;5099190;28;21215;-42
2021/03/28 05:59:17;;;;;;;4.93;4.60;;;;;;;;;;5105186;28;20763;-42
2021/03/28 06:01:51;;;;;;;7.77;5.07;;;;;;;;;;5103810;28;20969;-41
2021/03/28 06:04:35;;;;;;;5.83;4.97;;;;;;;;;;5103712;28;20585;-42
2021/03/28 06:07:03;;;;;;;8.67;5.47;;;;;;;;;;5098572;28;20598;-42
2021/03/28 06:09:39;;;;;;;5.63;5.10;;;;;;;;;;5097347;28;20733;-42
2021/03/28 06:12:11;;;;;;;5.53;5.03;;;;;;;;;;5103727;28;20611;-42
2021/03/28 06:14:42;;;;;;;5.33;4.83;;;;;;;;;;5105645;28;20626;-42
2021/03/28 06:17:30;;;;;;;6.00;5.00;;;;;;;;;;5106666;28;20668;-42
2021/03/28 06:20:19;;;;;;;7.90;5.20;;;;;;;;;;5089377;28;21173;-42
2021/03/28 06:22:50;;;;;;;6.67;5.10;;;;;;;;;;5102087;28;21337;-41
2021/03/28 06:25:32;;;;;;;6.17;5.57;;;;;;;;;;5106502;28;20983;-43
2021/03/28 06:28:08;;;;;;;6.03;5.43;;;;;;;;;;5103670;28;20603;-42
2021/03/28 06:30:33;;;;;;;6.07;4.97;;;;;;;;;;5089159;28;20600;-42
2021/03/28 06:33:25;;;;;;;5.25;4.75;;;;;;;;;;5102084;28;20604;-43
2021/03/28 06:36:08;;;;;;;5.17;4.77;;;;;;;;;;5104688;28;20212;-43
2021/03/28 06:38:47;;;;;;;6.30;5.00;;;;;;;;;;5106618;28;20682;-42
2021/03/28 06:41:31;;;;;;;5.30;4.63;;;;;;;;;;5109777;28;20672;-42
2021/03/28 06:43:59;;;;;;;5.10;4.40;;;;;;;;;;5109302;28;20596;-42
2021/03/28 06:46:37;;;;;;;5.27;4.77;;;;;;;;;;5105999;28;20589;-42
2021/03/28 06:49:23;;;;;;;6.50;4.80;;;;;;;;;;5108344;28;20591;-43
2021/03/28 06:51:57;;;;;;;5.10;4.63;;;;;;;;;;5101572;28;20595;-43
2021/03/28 06:54:41;;;;;;;6.33;4.63;;;;;;;;;;5106359;28;21001;-43
2021/03/28 06:57:18;;;;;;;7.00;5.17;;;;;;;;;;5104683;28;21156;-43
2021/03/28 06:59:49;;;;;;;5.63;4.47;;;;;;;;;;5107445;28;20582;-44
2021/03/28 07:02:23;;;;;;;6.90;4.77;;;;;;;;;;5109311;28;20703;-44
2021/03/28 07:05:10;;;;;;;7.93;4.50;;;;;;;;;;5109755;28;20653;-43
2021/03/28 07:07:36;;;;;;;6.30;5.70;;;;;;;;;;5107334;27;21147;-43
2021/03/28 07:10:07;;;;;;;6.00;5.50;;;;;;;;;;5103973;28;20615;-42
2021/03/28 07:12:44;;;;;;;8.27;5.10;;;;;;;;;;5109922;28;20183;-42
2021/03/28 07:15:19;;;;;;;8.30;4.80;;;;;;;;;;5109638;28;20650;-42
2021/03/28 07:17:56;;;;;;;6.77;5.20;;;;;;;;;;5105927;28;20590;-43
2021/03/28 07:20:30;;;;;;;5.53;4.70;;;;;;;;;;5101143;28;20691;-43
2021/03/28 07:23:14;;;;;;;4.80;4.30;;;;;;;;;;5110176;28;21098;-44
2021/03/28 07:26:01;;;;;;;7.30;4.30;;;;;;;;;;5090472;28;20657;-42
2021/03/28 07:28:45;;;;;;;5.73;5.23;;;;;;;;;;5109058;28;20599;-42
2021/03/28 07:31:28;;;;;;;6.70;4.30;;;;;;;;;;5109955;28;20629;-43
2021/03/28 07:34:12;;;;;;;5.40;4.57;;;;;;;;;;5107483;27;20607;-43
2021/03/28 07:37:00;;;;;;;9.70;4.60;;;;;;;;;;5105494;28;20633;-43
2021/03/28 07:39:33;;;;;;;5.57;4.77;;;;;;;;;;5107314;28;20643;-43
2021/03/28 07:42:17;;;;;;;5.07;4.60;;;;;;;;;;5108541;28;20595;-43
2021/03/28 07:45:01;;;;;;;6.93;4.83;;;;;;;;;;5107332;28;20607;-43
2021/03/28 07:47:41;;;;;;;5.90;4.97;;;;;;;;;;5108362;28;20588;-43
2021/03/28 07:50:25;;;;;;;12.10;5.67;;;;;;;;;;5105844;28;20613;-43
2021/03/28 07:53:14;;;;;;;8.37;5.50;;;;;;;;;;5098391;28;20695;-42
2021/03/28 07:56:00;;;;;;;5.90;5.37;;;;;;;;;;5107324;28;20681;-42
2021/03/28 07:58:46;;;;;;;5.27;4.63;;;;;;;;;;5083395;27;21144;-43
2021/03/28 08:01:17;;;;;;;5.73;4.80;;;;;;;;;;5106694;28;20609;-42
2021/03/28 08:03:45;;;;;;;6.90;4.40;;;;;;;;;;5107568;27;20682;-42
2021/03/28 08:06:19;;;;;;;7.07;4.47;;;;;;;;;;5107561;28;20599;-42
2021/03/28 08:08:54;;;;;;;5.40;4.77;;;;;;;;;;5108730;28;21122;-43
2021/03/28 08:11:22;;;;;;;4.93;4.50;;;;;;;;;;5108645;28;20691;-42
2021/03/28 08:14:17;;;;;;;5.93;4.40;;;;;;;;;;5108577;28;21217;-43
2021/03/28 08:16:55;;;;;;;5.80;4.50;;;;;;;;;;5108857;28;20644;-42
2021/03/28 08:19:35;;;;;;;5.50;5.00;;;;;;;;;;5108967;28;20595;-42
2021/03/28 08:22:11;;;;;;;8.00;4.70;;;;;;;;;;5088920;28;20590;-43
2021/03/28 08:24:56;;;;;;;5.17;3.63;;;;;;;;;;5088476;28;20655;-42
2021/03/28 08:27:38;;;;;;;4.90;4.40;;;;;;;;;;5088725;28;20647;-43
2021/03/28 08:30:13;;;;;;;9.03;8.13;;;;;;;;;;5106208;28;20951;-43
2021/03/28 08:32:56;;;;;;;15.00;10.07;;;;;;;;;;5109032;28;20582;-42
2021/03/28 08:35:40;;;;;;;6.17;4.67;;;;;;;;;;5109238;28;20684;-50
2021/03/28 08:38:24;;;;;;;9.77;6.00;;;;;;;;;;5109037;28;20677;-43
2021/03/28 08:40:55;;;;;;;20.90;16.47;;;;;;;;;;5088668;28;20608;-42
2021/03/28 08:43:48;;;;;;;10.50;9.30;;;;;;;;;;5091323;28;20623;-42
2021/03/28 08:46:29;;;;;;;6.70;5.50;;;;;;;;;;5108969;28;20607;-44
2021/03/28 08:48:57;;;;;;;11.63;8.90;;;;;;;;;;5108597;28;21112;-45
2021/03/28 08:51:25;;;;;;;9.13;7.40;;;;;;;;;;5108811;28;20590;-42
2021/03/28 08:53:53;;;;;;;5.57;4.70;;;;;;;;;;5108655;28;20574;-42
2021/03/28 08:56:36;;;;;;;5.43;3.90;;;;;;;;;;5108101;28;20647;-42
2021/03/28 08:59:01;;;;;;;5.27;4.00;;;;;;;;;;5107956;28;21150;-43
2021/03/28 09:01:47;;;;;;;6.38;4.30;;;;;;;;;;5108731;28;21162;-43
2021/03/28 09:04:12;;;;;;;4.73;4.23;;;;;;;;;;5108867;28;20174;-43
2021/03/28 09:06:37;;;;;;;4.67;4.27;;;;;;;;;;5107732;28;21005;-43
2021/03/28 09:09:11;;;;;;;4.55;4.00;;;;;;;;;;5108591;28;20266;-43
2021/03/28 09:11:43;;;;;;;6.43;4.50;;;;;;;;;;5106506;28;20197;-43
2021/03/28 09:14:08;;;;;;;4.43;4.03;;;;;;;;;;5108361;28;20602;-43
2021/03/28 09:16:52;;;;;;;5.60;4.25;;;;;;;;;;5108585;28;20623;-43
2021/03/28 09:19:38;;;;;;;4.67;4.13;;;;;;;;;;5108188;28;20174;-44
2021/03/28 09:22:14;;;;;;;5.57;3.60;;;;;;;;;;5066628;28;20583;-42
2021/03/28 09:24:45;;;;;;;6.43;4.10;;;;;;;;;;5107349;28;20743;-43
2021/03/28 09:27:13;;;;;;;6.17;3.33;;;;;;;;;;5108074;28;20665;-43
2021/03/28 09:29:38;;;;;;;6.10;3.27;;;;;;;;;;5107484;28;20841;-43
2021/03/28 09:32:20;;;;;;;3.33;2.97;;;;;;;;;;5108082;28;20662;-43
2021/03/28 09:34:53;;;;;;;8.40;3.77;;;;;;;;;;5107466;28;20604;-43
2021/03/28 09:37:25;;;;;;;6.23;3.30;;;;;;;;;;5108166;28;20576;-42
2021/03/28 09:39:56;;;;;;;4.90;3.37;;;;;;;;;;5107938;28;20659;-42
2021/03/28 09:42:30;;;;;;;4.20;3.30;;;;;;;;;;5107784;28;20580;-43
2021/03/28 09:45:13;;;;;;;5.07;3.30;;;;;;;;;;5103939;28;20596;-43
2021/03/28 09:47:44;;;;;;;4.20;3.20;;;;;;;;;;5107871;28;20579;-42
2021/03/28 09:50:20;;;;;;;4.80;2.90;;;;;;;;;;5107883;28;20575;-43
2021/03/28 09:53:03;;;;;;;6.33;3.47;;;;;;;;;;5107785;28;21001;-40
2021/03/28 09:55:30;;;;;;;6.07;3.50;;;;;;;;;;5107079;28;20675;-43
2021/03/28 09:58:18;;;;;;;3.43;2.80;;;;;;;;;;5107931;28;20623;-42
2021/03/28 10:00:50;;;;;;;8.13;3.67;;;;;;;;;;5107334;28;20604;-43
2021/03/28 10:03:17;;;;;;;8.23;3.30;;;;;;;;;;5107657;28;20757;-43
2021/03/28 10:05:42;;;;;;;3.27;2.97;;;;;;;;;;5107649;28;20966;-42
2021/03/28 10:08:07;;;;;;;6.73;3.53;;;;;;;;;;5107923;28;20568;-41
2021/03/28 10:10:51;;;;;;;6.83;3.40;;;;;;;;;;5108151;28;20760;-44
2021/03/28 10:13:45;;;;;;;7.23;3.50;;;;;;;;;;5107617;28;20183;-43
2021/03/28 10:16:11;;;;;;;3.80;3.00;;;;;;;;;;5085401;28;20651;-43
2021/03/28 10:18:54;;;;;;;4.90;3.43;;;;;;;;;;5108070;28;21051;-43
2021/03/28 10:21:37;;;;;;;5.93;3.67;;;;;;;;;;5107493;28;20173;-41
2021/03/28 10:24:02;;;;;;;7.20;3.53;;;;;;;;;;5087374;28;20580;-42
2021/03/28 10:26:46;;;;;;;3.75;2.97;;;;;;;;;;5087873;28;20978;-42
2021/03/28 10:29:11;;;;;;;7.83;3.77;;;;;;;;;;5097482;28;20579;-42
2021/03/28 10:31:56;;;;;;;4.25;3.50;;;;;;;;;;5107316;28;20989;-43
2021/03/28 10:34:24;;;;;;;5.97;3.93;;;;;;;;;;5107173;28;20260;-42
2021/03/28 10:37:08;;;;;;;5.37;3.67;;;;;;;;;;5107674;28;21168;-42
2021/03/28 10:39:39;;;;;;;4.60;3.20;;;;;;;;;;5107354;28;20611;-43
2021/03/28 10:42:22;;;;;;;5.33;3.50;;;;;;;;;;5107302;28;21111;-43
2021/03/28 10:45:03;;;;;;;6.70;3.43;;;;;;;;;;5107327;28;20586;-43
2021/03/28 10:47:48;;;;;;;4.80;3.13;;;;;;;;;;5107505;28;21156;-43
2021/03/28 10:50:31;;;;;;;5.27;3.23;;;;;;;;;;5106948;28;20993;-43
2021/03/28 10:53:15;;;;;;;5.20;3.67;;;;;;;;;;5106935;28;20599;-43
2021/03/28 10:55:58;;;;;;;6.90;3.57;;;;;;;;;;5106890;28;20758;-42
2021/03/28 10:58:28;;;;;;;5.13;3.10;;;;;;;;;;5106868;28;20582;-41
2021/03/28 11:01:07;;;;;;;6.13;2.97;;;;;;;;;;5106939;28;20580;-42
2021/03/28 11:03:50;;;;;;;4.17;3.10;;;;;;;;;;5107430;28;20563;-42
2021/03/28 11:06:34;;;;;;;5.23;3.30;;;;;;;;;;5107575;28;20573;-43
2021/03/28 11:09:18;;;;;;;6.67;3.70;;;;;;;;;;5110193;28;20680;-42
2021/03/28 11:12:01;;;;;;;4.20;3.13;;;;;;;;;;5110646;28;20583;-42
2021/03/28 11:14:40;;;;;;;5.83;3.47;;;;;;;;;;5110871;28;20606;-42
2021/03/28 11:17:11;;;;;;;5.83;3.37;;;;;;;;;;5110726;28;21268;-42
2021/03/28 11:19:54;;;;;;;5.83;3.77;;;;;;;;;;5110618;28;20599;-42
2021/03/28 11:22:23;;;;;;;6.77;3.50;;;;;;;;;;5110873;28;20621;-42
2021/03/28 11:25:07;;;;;;;5.80;3.60;;;;;;;;;;5110471;28;20575;-43
2021/03/28 11:27:50;;;;;;;4.30;3.67;;;;;;;;;;5110206;28;21138;-43
2021/03/28 11:30:18;;;;;;;6.17;3.80;;;;;;;;;;5110619;28;20604;-43
2021/03/28 11:32:54;;;;;;;7.30;3.40;;;;;;;;;;5110917;28;20576;-43
2021/03/28 11:35:25;;;;;;;4.07;3.27;;;;;;;;;;5111233;28;20627;-43
2021/03/28 11:37:52;;;;;;;4.57;3.73;;;;;;;;;;5110609;28;20989;-43
2021/03/28 11:40:17;;;;;;;6.00;3.93;;;;;;;;;;5092317;28;20626;-43
2021/03/28 11:42:44;;;;;;;7.60;4.13;;;;;;;;;;5110651;28;20665;-43
2021/03/28 11:45:28;;;;;;;5.27;3.77;;;;;;;;;;5110583;28;20193;-43
2021/03/28 11:47:54;;;;;;;7.10;3.80;;;;;;;;;;5110471;28;20691;-43
2021/03/28 11:50:25;;;;;;;4.43;3.33;;;;;;;;;;5111125;28;20581;-43
2021/03/28 11:52:57;;;;;;;4.90;3.23;;;;;;;;;;5110305;28;20564;-43
2021/03/28 11:55:34;;;;;;;7.57;3.50;;;;;;;;;;5110224;28;20712;-43
2021/03/28 11:58:12;;;;;;;4.23;3.23;;;;;;;;;;5106955;28;20664;-43
2021/03/28 12:00:38;;;;;;;5.13;3.20;;;;;;;;;;5107365;28;20573;-43
2021/03/28 12:03:19;;;;;;;3.97;2.87;;;;;;;;;;5108399;27;20585;-43
2021/03/28 12:06:03;;;;;;;3.37;2.90;;;;;;;;;;5105477;28;20934;-41
2021/03/28 12:08:30;;;;;;;2.60;2.30;;;;;;;;;;5105590;28;20953;-43
2021/03/28 12:10:57;;;;;;;3.60;2.90;;;;;;;;;;5102210;28;20605;-43
2021/03/28 12:13:25;;;;;;;3.40;2.67;;;;;;;;;;5103718;28;20619;-42
2021/03/28 12:15:52;;;;;;;6.23;2.93;;;;;;;;;;5099080;28;20625;-42
2021/03/28 12:18:20;;;;;;;3.07;2.40;;;;;;;;;;5107179;27;20754;-43
2021/03/28 12:20:45;;;;;;;4.73;2.60;;;;;;;;;;5106284;28;20705;-42
2021/03/28 12:23:20;;;;;;;3.93;2.17;;;;;;;;;;5106331;28;20707;-42
2021/03/28 12:26:01;;;;;;;4.30;2.70;;;;;;;;;;5103942;27;20256;-43
2021/03/28 12:28:32;;;;;;;4.13;3.13;;;;;;;;;;5101115;27;20599;-43
2021/03/28 12:31:18;;;;;;;3.33;2.70;;;;;;;;;;5105941;28;21173;-42
2021/03/28 12:33:51;;;;;;;6.50;2.80;;;;;;;;;;5103945;27;20643;-43
2021/03/28 12:36:17;;;;;;;3.00;2.30;;;;;;;;;;5108193;27;20643;-42
2021/03/28 12:38:45;;;;;;;5.37;2.50;;;;;;;;;;5104413;27;20592;-42
2021/03/28 12:41:40;;;;;;;3.67;2.53;;;;;;;;;;5105865;28;20651;-42
2021/03/28 12:44:05;;;;;;;4.23;2.87;;;;;;;;;;5082801;28;20668;-42
2021/03/28 12:46:30;;;;;;;5.45;4.38;;;;;;;;;;5106148;28;20600;-42
2021/03/28 12:49:07;;;;;;;3.53;2.50;;;;;;;;;;5095850;28;20263;-42
2021/03/28 12:51:32;;;;;;;4.37;2.80;;;;;;;;;;5101970;28;20274;-43
2021/03/28 12:53:58;;;;;;;3.30;2.97;;;;;;;;;;5105435;28;21113;-43
2021/03/28 12:56:25;;;;;;;4.23;2.80;;;;;;;;;;5102972;28;20230;-43
2021/03/28 12:58:53;;;;;;;3.40;2.13;;;;;;;;;;5105238;28;20184;-44
2021/03/28 13:01:19;;;;;;;2.87;2.40;;;;;;;;;;5103379;28;20668;-43
2021/03/28 13:03:45;;;;;;;4.78;2.72;;;;;;;;;;5105845;28;21185;-42
2021/03/28 13:06:14;;;;;;;2.60;2.40;;;;;;;;;;5105017;28;20179;-42
2021/03/28 13:08:42;;;;;;;5.80;5.00;;;;;;;;;;5105805;28;20597;-42
2021/03/28 13:11:07;;;;;;;5.97;4.10;;;;;;;;;;5096031;28;21387;-43
2021/03/28 13:13:41;;;;;;;3.40;2.37;;;;;;;;;;5097499;28;20620;-43
2021/03/28 13:16:19;;;;;;;3.43;2.17;;;;;;;;;;5101851;27;20636;-43
2021/03/28 13:18:46;;;;;;;5.67;3.37;;;;;;;;;;5094612;28;20607;-44
2021/03/28 13:21:16;;;;;;;4.13;2.80;;;;;;;;;;5098643;28;21149;-43
2021/03/28 13:23:44;;;;;;;3.03;2.43;;;;;;;;;;5105959;28;21154;-43
2021/03/28 13:26:13;;;;;;;4.50;2.83;;;;;;;;;;5099755;28;20601;-42
2021/03/28 13:28:39;;;;;;;5.00;2.70;;;;;;;;;;5104868;28;20999;-43
2021/03/28 13:31:15;;;;;;;3.40;2.50;;;;;;;;;;5097699;28;20606;-43
2021/03/28 13:33:43;;;;;;;5.77;2.67;;;;;;;;;;5097627;28;20608;-43
2021/03/28 13:36:13;;;;;;;2.70;2.20;;;;;;;;;;5104506;28;20771;-43
2021/03/28 13:38:39;;;;;;;3.70;2.50;;;;;;;;;;5098468;28;20599;-42
2021/03/28 13:41:05;;;;;;;3.43;1.90;;;;;;;;;;5103014;28;20636;-43
2021/03/28 13:43:35;;;;;;;2.83;2.10;;;;;;;;;;5103208;28;20220;-43
2021/03/28 13:46:10;;;;;;;2.43;1.90;;;;;;;;;;5103063;28;20613;-43
2021/03/28 13:48:35;;;;;;;5.47;2.30;;;;;;;;;;5098769;28;20609;-43
2021/03/28 13:51:19;;;;;;;4.17;2.50;;;;;;;;;;5099602;28;20668;-43
2021/03/28 13:53:54;;;;;;;2.90;2.60;;;;;;;;;;5103060;28;20234;-43
2021/03/28 13:56:24;;;;;;;3.23;2.10;;;;;;;;;;5096504;28;20660;-42
2021/03/28 13:59:00;;;;;;;2.70;2.00;;;;;;;;;;5100368;28;22453;-43
2021/03/28 14:01:26;;;;;;;3.10;1.90;;;;;;;;;;5099907;28;20591;-43
2021/03/28 14:03:53;;;;;;;4.10;2.07;;;;;;;;;;5092550;28;20617;-43
2021/03/28 14:06:24;;;;;;;2.63;2.43;;;;;;;;;;5101494;28;21163;-43
2021/03/28 14:09:05;;;;;;;2.20;2.00;;;;;;;;;;5101524;28;20591;-43
2021/03/28 14:11:36;;;;;;;3.47;1.93;;;;;;;;;;5098507;28;20620;-44
2021/03/28 14:14:03;;;;;;;5.30;2.73;;;;;;;;;;5103664;28;20591;-44
2021/03/28 14:16:37;;;;;;;3.40;2.00;;;;;;;;;;5101205;28;20634;-42
2021/03/28 14:19:19;;;;;;;2.70;1.93;;;;;;;;;;5098844;28;20655;-43
2021/03/28 14:21:44;;;;;;;2.70;2.30;;;;;;;;;;5092167;28;20591;-43
2021/03/28 14:24:12;;;;;;;3.20;2.87;;;;;;;;;;5103285;28;20595;-44
2021/03/28 14:26:45;;;;;;;2.50;2.30;;;;;;;;;;5103154;28;20188;-44
2021/03/28 14:29:21;;;;;;;3.23;2.93;;;;;;;;;;5101937;28;20773;-42
2021/03/28 14:31:47;;;;;;;5.37;2.67;;;;;;;;;;5106566;28;20621;-44
2021/03/28 14:34:21;;;;;;;2.70;2.50;;;;;;;;;;5104634;28;20598;-43
2021/03/28 14:37:05;;;;;;;2.40;2.20;;;;;;;;;;5101144;28;20206;-42
2021/03/28 14:39:47;;;;;;;4.07;2.20;;;;;;;;;;5104475;28;20686;-42
2021/03/28 14:42:17;;;;;;;2.50;2.30;;;;;;;;;;5099276;28;20602;-42
2021/03/28 14:44:51;;;;;;;3.27;2.30;;;;;;;;;;5106887;28;20681;-42
2021/03/28 14:47:24;;;;;;;2.80;2.57;;;;;;;;;;5105547;27;21158;-43
2021/03/28 14:49:54;;;;;;;3.50;2.50;;;;;;;;;;5105024;28;20601;-43
2021/03/28 14:52:19;;;;;;;2.63;1.80;;;;;;;;;;5107774;28;20617;-42
2021/03/28 14:54:47;;;;;;;3.35;2.00;;;;;;;;;;5106464;28;20630;-42
2021/03/28 14:57:30;;;;;;;6.23;2.73;;;;;;;;;;5105924;28;20933;-42
2021/03/28 15:00:00;;;;;;;4.60;2.23;;;;;;;;;;5102473;28;20589;-44
2021/03/28 15:02:37;;;;;;;2.40;2.20;;;;;;;;;;5098631;28;20651;-43
2021/03/28 15:05:15;;;;;;;1.97;1.80;;;;;;;;;;5101467;28;20582;-43
2021/03/28 15:07:41;;;;;;;4.27;2.30;;;;;;;;;;5103751;28;20687;-43
2021/03/28 15:10:06;;;;;;;2.60;1.97;;;;;;;;;;5095336;28;20711;-43
2021/03/28 15:12:35;;;;;;;3.15;2.35;;;;;;;;;;5099146;28;20548;-44
2021/03/28 15:15:27;;;;;;;2.47;2.00;;;;;;;;;;5102643;28;20266;-42
2021/03/28 15:18:00;;;;;;;3.60;2.37;;;;;;;;;;5087001;28;20686;-43
2021/03/28 15:20:39;;;;;;;3.57;2.40;;;;;;;;;;5105918;28;20599;-43
2021/03/28 15:23:24;;;;;;;3.40;2.40;;;;;;;;;;5098319;28;21306;-43
2021/03/28 15:25:52;;;;;;;3.57;2.67;;;;;;;;;;5091741;28;20606;-42
2021/03/28 15:28:26;;;;;;;2.73;2.30;;;;;;;;;;5106921;28;20998;-42
2021/03/28 15:31:05;;;;;;;2.90;2.10;;;;;;;;;;5093285;28;20659;-43
2021/03/28 15:33:44;;;;;;;6.17;2.80;;;;;;;;;;5106413;28;20614;-42